MUGM/NBW METAR and TAF weather

Enter ICAO airport designator
Station Type Date Time Source
MUGM METAR 2022/12/02 22:51 UTC NOAA

MUGM 022251Z 01005KT 10SM -RA SCT040 BKN060 BKN075 25/23 A3002 RMK AO2 RAB2155 SLP165 P0008 T02500233 $


Station Type Date Time Source
MUGM Decoded METAR 2022/12/02 22:51 UTC NOAA

GUANTANAMO BAY, CUBA NAVAL, CU, Cuba (MUGM) 19-55N 075-12W 23M
Dec 02, 2022 - 05:51 PM EST / 2022.12.02 2251 UTC
Wind: from the N (010 degrees) at 6 MPH (5 KT):0
Visibility: 10 mile(s):0
Sky conditions: mostly cloudy
Weather: light rain
Precipitation last hour: 0.08 inches
Temperature: 77.0 F (25.0 C)
Dew Point: 73.9 F (23.3 C)
Relative Humidity: 90%
Pressure (altimeter): 30.02 in. Hg (1016 hPa)
ob: MUGM 022251Z 01005KT 10SM -RA SCT040 BKN060 BKN075 25/23 A3002 RMK AO2 RAB2155 SLP165 P0008 T02500233
cycle: 23

Station Type Date Time Source
MUGM TAF 2022/12/02 23:00 UTC NOAA

TAF MUGM 0223/0323 36008KT 9999 SCT040 BKN060 BKN080 QNH3000INS
BECMG 0223/0301 33008KT 9999 FEW040 SCT060 QNH2998INS
FM031400 01014G24KT 9999 FEW030 FEW060 QNH2994INS
BECMG 0317/0319 03012KT 9999 VCSH BKN060 BKN080 QNH2993INS T23/0311Z T31/0318Z FN20097

Example: see airport list